Time;durP1;ratioP1;P1;durP2;ratioP2;P2;SDS_P1;SDS_P2;PMS_P1;PMS_P2;Temp;Humidity;BMP_temperature;BMP_pressure;BME280_temperature;BME280_humidity;BME280_pressure;Samples;Min_cycle;Max_cycle;Signal;HPM_P1;HPM_P2
2022/07/03 00:00:03;;;;;;;;;;;14.80;99.90;;;;;;4976650;28;20272;-80
2022/07/03 00:02:30;;;;;;;;;;;14.80;99.90;;;;;;4977440;28;20317;-81
2022/07/03 00:04:57;;;;;;;;;;;14.80;99.90;;;;;;4976747;28;20057;-80
2022/07/03 00:07:23;;;;;;;;;;;14.80;99.90;;;;;;4977035;28;19925;-82
2022/07/03 00:09:50;;;;;;;;;;;14.90;99.90;;;;;;4977080;28;20272;-79
2022/07/03 00:12:19;;;;;;;;;;;14.90;99.90;;;;;;4977065;28;19910;-81
2022/07/03 00:14:46;;;;;;;;;;;14.70;99.90;;;;;;4976908;28;20364;-78
2022/07/03 00:17:13;;;;;;;;;;;14.70;99.90;;;;;;4976326;28;20317;-78
2022/07/03 00:19:40;;;;;;;;;;;14.80;99.90;;;;;;4976910;28;19911;-78
2022/07/03 00:22:08;;;;;;;;;;;15.00;99.90;;;;;;4976696;28;20352;-78
2022/07/03 00:24:45;;;;;;;;;;;15.00;99.90;;;;;;4976845;28;19950;-78
2022/07/03 00:27:12;;;;;;;;;;;15.10;99.90;;;;;;4976368;28;19910;-77
2022/07/03 00:29:43;;;;;;;;;;;15.00;99.90;;;;;;4959087;28;20301;-77
2022/07/03 00:32:17;;;;;;;;;;;14.90;99.90;;;;;;4976682;28;19953;-77
2022/07/03 00:34:46;;;;;;;;;;;14.80;99.90;;;;;;4976383;28;19914;-78
2022/07/03 00:37:13;;;;;;;;;;;14.80;99.90;;;;;;4976170;28;19914;-76
2022/07/03 00:39:40;;;;;;;;;;;14.80;99.90;;;;;;4976411;28;19914;-76
2022/07/03 00:42:08;;;;;;;;;;;14.90;99.90;;;;;;4976501;28;19918;-77
2022/07/03 00:44:38;;;;;;;;;;;14.90;99.90;;;;;;4958733;28;19917;-76
2022/07/03 00:47:05;;;;;;;;;;;14.90;99.90;;;;;;4958718;28;19910;-75
2022/07/03 00:49:34;;;;;;;;;;;14.90;99.90;;;;;;4976118;28;19914;-76
2022/07/03 00:52:04;;;;;;;;;;;14.90;99.90;;;;;;4976289;28;19918;-76
2022/07/03 00:54:32;;;;;;;;;;;14.90;99.90;;;;;;4976598;28;20391;-77
2022/07/03 00:56:59;;;;;;;;;;;14.80;99.90;;;;;;4975927;28;19910;-77
2022/07/03 00:59:26;;;;;;;;;;;14.80;99.90;;;;;;4975425;28;19910;-76
2022/07/03 01:01:58;;;;;;;;;;;14.90;99.90;;;;;;4975917;28;19918;-77
2022/07/03 01:04:43;;;;;;;;;;;15.00;99.90;;;;;;4975921;28;19922;-76
2022/07/03 01:07:18;;;;;;;;;;;15.00;99.90;;;;;;4975969;28;19917;-77
2022/07/03 01:09:45;;;;;;;;;;;15.10;99.90;;;;;;4975070;28;19910;-78
2022/07/03 01:12:19;;;;;;;;;;;15.20;99.90;;;;;;4976412;28;19993;-76
2022/07/03 01:15:06;;;;;;;;;;;15.20;99.90;;;;;;4975003;28;19917;-77
2022/07/03 01:17:38;;;;;;;;;;;15.20;99.90;;;;;;4955250;28;19911;-77
2022/07/03 01:20:06;;;;;;;;;;;15.10;99.90;;;;;;4975490;28;20356;-79
2022/07/03 01:22:37;;;;;;;;;;;15.10;99.90;;;;;;4975543;28;19965;-76
2022/07/03 01:25:12;;;;;;;;;;;15.10;99.90;;;;;;4957909;28;19914;-77
2022/07/03 01:27:39;;;;;;;;;;;15.00;99.90;;;;;;4975642;28;20292;-77
2022/07/03 01:30:06;;;;;;;;;;;15.00;99.90;;;;;;4974940;28;20352;-77
2022/07/03 01:32:38;;;;;;;;;;;14.90;99.90;;;;;;4990251;28;20395;-77
2022/07/03 01:35:06;;;;;;;;;;;14.90;99.90;;;;;;4975122;28;19910;-76
2022/07/03 01:37:34;;;;;;;;;;;14.90;99.90;;;;;;4975267;28;19911;-78
2022/07/03 01:40:03;;;;;;;;;;;14.90;99.90;;;;;;4975237;28;19911;-77
2022/07/03 01:42:32;;;;;;;;;;;15.00;99.90;;;;;;4975149;28;19964;-78
2022/07/03 01:45:00;;;;;;;;;;;15.00;99.90;;;;;;4974717;28;19953;-78
2022/07/03 01:47:27;;;;;;;;;;;15.00;99.90;;;;;;4975743;28;20371;-80
2022/07/03 01:49:54;;;;;;;;;;;15.00;99.90;;;;;;4975182;28;19914;-78
2022/07/03 01:52:21;;;;;;;;;;;15.10;99.90;;;;;;4975223;28;20278;-80
2022/07/03 01:54:48;;;;;;;;;;;15.20;99.90;;;;;;4975109;28;19910;-79
2022/07/03 01:57:15;;;;;;;;;;;15.20;99.90;;;;;;4974825;28;19914;-79
2022/07/03 01:59:42;;;;;;;;;;;15.20;99.90;;;;;;4974660;28;19972;-79
2022/07/03 02:02:20;;;;;;;;;;;15.20;99.90;;;;;;4974732;28;20328;-78
2022/07/03 02:04:50;;;;;;;;;;;15.30;99.90;;;;;;4974475;28;19930;-77
2022/07/03 02:07:37;;;;;;;;;;;15.30;99.90;;;;;;4977575;28;20334;-78
2022/07/03 02:10:05;;;;;;;;;;;15.40;99.90;;;;;;4987060;28;19914;-76
2022/07/03 02:12:36;;;;;;;;;;;15.50;99.90;;;;;;4992652;28;19910;-78
2022/07/03 02:15:05;;;;;;;;;;;15.60;99.90;;;;;;4993501;28;19910;-78
2022/07/03 02:17:58;;;;;;;;;;;15.70;99.90;;;;;;4992847;28;19963;-78
2022/07/03 02:20:25;;;;;;;;;;;15.70;99.90;;;;;;4992220;28;19909;-76
2022/07/03 02:23:00;;;;;;;;;;;15.70;99.90;;;;;;4993769;28;19918;-76
2022/07/03 02:25:32;;;;;;;;;;;15.70;99.90;;;;;;4993953;28;19910;-76
2022/07/03 02:28:04;;;;;;;;;;;15.70;99.90;;;;;;4993850;28;19936;-79
2022/07/03 02:30:34;;;;;;;;;;;15.60;99.90;;;;;;4993193;28;20304;-75
2022/07/03 02:33:01;;;;;;;;;;;15.40;99.90;;;;;;4993768;28;19932;-76
2022/07/03 02:35:32;;;;;;;;;;;15.20;99.90;;;;;;4993879;28;19910;-76
2022/07/03 02:38:31;;;;;;;;;;;15.10;99.90;;;;;;4993671;28;19917;-78
2022/07/03 02:41:04;;;;;;;;;;;15.00;99.90;;;;;;4971307;28;19916;-78
2022/07/03 02:43:49;;;;;;;;;;;15.00;99.90;;;;;;4991660;28;19918;-78
2022/07/03 02:47:00;;;;;;;;;;;14.90;99.90;;;;;;4993610;28;19910;-77
2022/07/03 02:49:28;;;;;;;;;;;14.90;99.90;;;;;;4987548;28;19910;-78
2022/07/03 02:52:01;;;;;;;;;;;14.90;99.90;;;;;;4993226;28;19910;-77
2022/07/03 02:54:33;;;;;;;;;;;14.90;99.90;;;;;;4993410;28;20001;-77
2022/07/03 02:57:02;;;;;;;;;;;14.90;99.90;;;;;;4993384;28;20352;-77
2022/07/03 02:59:47;;;;;;;;;;;14.90;99.90;;;;;;4992987;28;19914;-77
2022/07/03 03:02:23;;;;;;;;;;;14.90;99.90;;;;;;4993157;28;19965;-76
2022/07/03 03:04:55;;;;;;;;;;;14.80;99.90;;;;;;4992849;28;19921;-77
2022/07/03 03:07:26;;;;;;;;;;;14.70;99.90;;;;;;4993330;28;19917;-76
2022/07/03 03:09:53;;;;;;;;;;;14.70;99.90;;;;;;4993374;28;19910;-77
2022/07/03 03:12:23;;;;;;;;;;;14.70;99.90;;;;;;4993208;28;19909;-77
2022/07/03 03:14:59;;;;;;;;;;;14.80;99.90;;;;;;4992792;28;19910;-77
2022/07/03 03:17:26;;;;;;;;;;;14.80;99.90;;;;;;4992975;28;19910;-77
2022/07/03 03:19:55;;;;;;;;;;;14.80;99.90;;;;;;4992969;28;19921;-76
2022/07/03 03:22:31;;;;;;;;;;;14.60;99.90;;;;;;4993011;28;20367;-77
2022/07/03 03:24:58;;;;;;;;;;;14.50;99.90;;;;;;4992893;28;19914;-78
2022/07/03 03:27:25;;;;;;;;;;;14.50;99.90;;;;;;4993106;28;20356;-78
2022/07/03 03:29:52;;;;;;;;;;;14.50;99.90;;;;;;5003007;28;19955;-78
2022/07/03 03:32:19;;;;;;;;;;;14.50;99.90;;;;;;4994393;28;19914;-77
2022/07/03 03:34:46;;;;;;;;;;;14.50;99.90;;;;;;4995825;28;19917;-76
2022/07/03 03:37:13;;;;;;;;;;;14.50;99.90;;;;;;4996759;28;19916;-77
2022/07/03 03:39:39;;;;;;;;;;;14.50;99.90;;;;;;4979540;28;19910;-79
2022/07/03 03:42:06;;;;;;;;;;;14.50;99.90;;;;;;4996781;28;19925;-77
2022/07/03 03:44:33;;;;;;;;;;;14.40;99.90;;;;;;4996854;28;19914;-77
2022/07/03 03:47:00;;;;;;;;;;;14.50;99.90;;;;;;4996760;28;20374;-76
2022/07/03 03:49:27;;;;;;;;;;;14.50;99.90;;;;;;4996996;28;20013;-76
2022/07/03 03:51:54;;;;;;;;;;;14.60;99.90;;;;;;4996899;28;19914;-77
2022/07/03 03:54:21;;;;;;;;;;;14.60;99.90;;;;;;4996893;28;19914;-76
2022/07/03 03:56:48;;;;;;;;;;;14.50;99.90;;;;;;4996689;28;20331;-77
2022/07/03 03:59:15;;;;;;;;;;;14.40;99.90;;;;;;4996617;28;19948;-77
2022/07/03 04:01:42;;;;;;;;;;;14.40;99.90;;;;;;4996762;28;19910;-78
2022/07/03 04:04:08;;;;;;;;;;;14.40;99.90;;;;;;4996634;28;19957;-76
2022/07/03 04:06:38;;;;;;;;;;;14.40;99.90;;;;;;4996434;28;19914;-76
2022/07/03 04:09:05;;;;;;;;;;;14.20;99.90;;;;;;4996508;28;20337;-76
2022/07/03 04:11:32;;;;;;;;;;;14.30;99.90;;;;;;4996585;28;19956;-77
2022/07/03 04:13:58;;;;;;;;;;;14.40;99.90;;;;;;4996603;28;20537;-76
2022/07/03 04:16:25;;;;;;;;;;;14.50;99.90;;;;;;4996549;28;19933;-77
2022/07/03 04:18:52;;;;;;;;;;;14.60;99.90;;;;;;4996091;28;19956;-77
2022/07/03 04:21:19;;;;;;;;;;;14.50;99.90;;;;;;4996228;28;19910;-77
2022/07/03 04:23:45;;;;;;;;;;;14.60;99.90;;;;;;4996378;28;19925;-76
2022/07/03 04:26:12;;;;;;;;;;;14.40;99.90;;;;;;4996267;28;19917;-77
2022/07/03 04:28:40;;;;;;;;;;;14.40;99.90;;;;;;4996241;28;19910;-76
2022/07/03 04:31:07;;;;;;;;;;;14.40;99.90;;;;;;4995970;28;20003;-77
2022/07/03 04:33:34;;;;;;;;;;;14.40;99.90;;;;;;4995961;28;20264;-75
2022/07/03 04:36:00;;;;;;;;;;;14.30;99.90;;;;;;4994955;28;19917;-77
2022/07/03 04:38:27;;;;;;;;;;;14.30;99.90;;;;;;4995874;28;19965;-77
2022/07/03 04:40:54;;;;;;;;;;;14.30;99.90;;;;;;4995685;28;20339;-78
2022/07/03 04:43:20;;;;;;;;;;;14.30;99.90;;;;;;4994857;28;19917;-79
2022/07/03 04:45:47;;;;;;;;;;;14.30;99.90;;;;;;4994663;28;19920;-76
2022/07/03 04:48:14;;;;;;;;;;;14.30;99.90;;;;;;4995773;28;19920;-77
2022/07/03 04:50:41;;;;;;;;;;;14.30;99.90;;;;;;4995841;28;20378;-77
2022/07/03 04:53:07;;;;;;;;;;;14.20;99.90;;;;;;4995663;28;19909;-78
2022/07/03 04:55:34;;;;;;;;;;;14.20;99.90;;;;;;4978141;28;19914;-76
2022/07/03 04:58:01;;;;;;;;;;;14.20;99.90;;;;;;4995722;28;19956;-77
2022/07/03 05:00:28;;;;;;;;;;;14.20;99.90;;;;;;5002311;28;19961;-76
2022/07/03 05:02:54;;;;;;;;;;;14.10;99.90;;;;;;5015729;28;19918;-77
2022/07/03 05:05:21;;;;;;;;;;;14.20;99.90;;;;;;5015711;28;20012;-77
2022/07/03 05:07:48;;;;;;;;;;;14.10;99.90;;;;;;5015949;28;19953;-76
2022/07/03 05:10:15;;;;;;;;;;;14.10;99.90;;;;;;5015825;28;19956;-76
2022/07/03 05:12:41;;;;;;;;;;;14.10;99.90;;;;;;5015865;28;19909;-76
2022/07/03 05:15:08;;;;;;;;;;;14.10;99.90;;;;;;5015627;28;19952;-76
2022/07/03 05:17:35;;;;;;;;;;;14.00;99.90;;;;;;5015568;28;20377;-77
2022/07/03 05:22:48;;;;;;;;;;;14.10;99.90;;;;;;5002114;28;20040;-78
2022/07/03 05:25:15;;;;;;;;;;;14.00;99.90;;;;;;5013261;28;19933;-76
2022/07/03 05:27:41;;;;;;;;;;;14.00;99.90;;;;;;5014689;28;19910;-76
2022/07/03 05:30:08;;;;;;;;;;;14.10;99.90;;;;;;5014642;28;20007;-78
2022/07/03 05:32:35;;;;;;;;;;;14.00;99.90;;;;;;5014612;28;19910;-76
2022/07/03 05:35:02;;;;;;;;;;;14.00;99.90;;;;;;5013899;28;19916;-77
2022/07/03 05:37:29;;;;;;;;;;;13.90;99.90;;;;;;5014642;28;19909;-77
2022/07/03 05:39:55;;;;;;;;;;;14.00;99.90;;;;;;5014616;28;20465;-77
2022/07/03 05:42:22;;;;;;;;;;;14.00;99.90;;;;;;5014340;28;20264;-77
2022/07/03 05:44:49;;;;;;;;;;;14.10;99.90;;;;;;5014767;28;20406;-78
2022/07/03 05:47:16;;;;;;;;;;;14.10;99.90;;;;;;5015521;28;20008;-77
2022/07/03 05:49:42;;;;;;;;;;;14.20;99.90;;;;;;5029983;28;19909;-77
2022/07/03 05:52:09;;;;;;;;;;;14.20;99.90;;;;;;5014824;28;19910;-77
2022/07/03 05:54:36;;;;;;;;;;;14.20;99.90;;;;;;5014058;28;20322;-77
2022/07/03 05:57:02;;;;;;;;;;;14.30;99.90;;;;;;5013973;28;19910;-77
2022/07/03 05:59:29;;;;;;;;;;;14.30;99.90;;;;;;5014112;28;19910;-77
2022/07/03 06:01:56;;;;;;;;;;;14.30;99.90;;;;;;5013906;28;19917;-77
2022/07/03 06:04:23;;;;;;;;;;;14.30;99.90;;;;;;5013722;28;20299;-77
2022/07/03 06:06:49;;;;;;;;;;;14.10;99.90;;;;;;5014248;28;19916;-76
2022/07/03 06:09:16;;;;;;;;;;;14.00;99.90;;;;;;5014695;28;19963;-77
2022/07/03 06:11:43;;;;;;;;;;;13.90;99.90;;;;;;5014628;28;19910;-77
2022/07/03 06:14:10;;;;;;;;;;;13.90;99.90;;;;;;5014580;28;19909;-77
2022/07/03 06:16:37;;;;;;;;;;;13.90;99.90;;;;;;5014307;28;20410;-78
2022/07/03 06:19:03;;;;;;;;;;;13.90;99.90;;;;;;5014301;28;20379;-76
2022/07/03 06:21:30;;;;;;;;;;;13.90;99.90;;;;;;5014351;28;19917;-76
2022/07/03 06:23:57;;;;;;;;;;;13.90;99.90;;;;;;5014407;28;19910;-76
2022/07/03 06:26:24;;;;;;;;;;;13.90;99.90;;;;;;5014489;28;19913;-76
2022/07/03 06:28:51;;;;;;;;;;;13.90;99.90;;;;;;5014247;28;19910;-78
2022/07/03 06:31:18;;;;;;;;;;;13.90;99.90;;;;;;5014096;28;19909;-76
2022/07/03 06:33:45;;;;;;;;;;;14.00;99.90;;;;;;5014216;28;19909;-77
2022/07/03 06:36:11;;;;;;;;;;;14.00;99.90;;;;;;5014121;28;19996;-77
2022/07/03 06:38:38;;;;;;;;;;;14.00;99.90;;;;;;5014243;28;19910;-78
2022/07/03 06:41:05;;;;;;;;;;;14.00;99.90;;;;;;5013923;28;20279;-76
2022/07/03 06:43:32;;;;;;;;;;;14.00;99.90;;;;;;5013966;28;19917;-76
2022/07/03 06:45:58;;;;;;;;;;;14.00;99.90;;;;;;5014019;28;19933;-76
2022/07/03 06:48:25;;;;;;;;;;;14.00;99.90;;;;;;5013745;28;19916;-76
2022/07/03 06:50:52;;;;;;;;;;;14.00;99.90;;;;;;4997993;28;19910;-76
2022/07/03 06:53:18;;;;;;;;;;;14.00;99.90;;;;;;4994013;28;19910;-76
2022/07/03 06:55:45;;;;;;;;;;;13.90;99.90;;;;;;4993777;28;19910;-76
2022/07/03 06:58:12;;;;;;;;;;;13.90;99.90;;;;;;4994093;28;20326;-78
2022/07/03 07:00:39;;;;;;;;;;;14.00;99.90;;;;;;4993625;28;20391;-76
2022/07/03 07:03:05;;;;;;;;;;;14.00;99.90;;;;;;4993571;28;19928;-76
2022/07/03 07:05:32;;;;;;;;;;;14.00;99.90;;;;;;4993679;28;19922;-77
2022/07/03 07:07:59;;;;;;;;;;;14.00;99.90;;;;;;4993324;28;20276;-76
2022/07/03 07:10:26;;;;;;;;;;;14.00;99.90;;;;;;4993369;28;19921;-76
2022/07/03 07:12:52;;;;;;;;;;;13.90;99.90;;;;;;4993001;28;20398;-76
2022/07/03 07:15:19;;;;;;;;;;;14.00;99.90;;;;;;4993833;28;19917;-77
2022/07/03 07:17:46;;;;;;;;;;;14.00;99.90;;;;;;4993621;28;19922;-77
2022/07/03 07:20:12;;;;;;;;;;;14.00;99.90;;;;;;4993828;28;20348;-75
2022/07/03 07:22:39;;;;;;;;;;;13.90;99.90;;;;;;4993284;28;19918;-76
2022/07/03 07:25:06;;;;;;;;;;;13.90;99.90;;;;;;4993716;28;19910;-77
2022/07/03 07:27:33;;;;;;;;;;;13.90;99.90;;;;;;5010840;28;20369;-76
2022/07/03 07:30:00;;;;;;;;;;;13.80;99.90;;;;;;5012875;28;19909;-76
2022/07/03 07:32:26;;;;;;;;;;;13.80;99.90;;;;;;5011199;28;19957;-78
2022/07/03 07:34:53;;;;;;;;;;;13.80;99.90;;;;;;5012349;28;19916;-78
2022/07/03 07:37:20;;;;;;;;;;;13.80;99.90;;;;;;5011593;28;20014;-77
2022/07/03 07:39:46;;;;;;;;;;;13.80;99.90;;;;;;5013127;28;20009;-77
2022/07/03 07:42:13;;;;;;;;;;;13.80;99.90;;;;;;5012973;28;19953;-77
2022/07/03 07:44:40;;;;;;;;;;;13.80;99.90;;;;;;5013058;28;19920;-77
2022/07/03 07:47:06;;;;;;;;;;;13.80;99.90;;;;;;5012898;28;19910;-78
2022/07/03 07:49:33;;;;;;;;;;;13.80;99.90;;;;;;5025397;28;20359;-78
2022/07/03 07:52:00;;;;;;;;;;;13.80;99.90;;;;;;5003236;28;19921;-77
2022/07/03 07:54:27;;;;;;;;;;;13.90;99.90;;;;;;5000564;28;20253;-77
2022/07/03 07:56:53;;;;;;;;;;;13.90;99.90;;;;;;4990373;28;20446;-78
2022/07/03 07:59:20;;;;;;;;;;;13.90;99.90;;;;;;4990723;28;19914;-77
2022/07/03 08:07:16;;;;;;;;;;;13.90;99.90;;;;;;4990091;28;20658;-78
2022/07/03 08:09:43;;;;;;;;;;;13.90;99.90;;;;;;4990675;28;20331;-77
2022/07/03 08:12:10;;;;;;;;;;;13.90;99.90;;;;;;4990868;28;19957;-78
2022/07/03 08:14:37;;;;;;;;;;;13.90;99.90;;;;;;4990856;28;20367;-77
2022/07/03 08:17:05;;;;;;;;;;;13.90;99.90;;;;;;4990399;28;19914;-78
2022/07/03 08:19:32;;;;;;;;;;;13.90;99.90;;;;;;4993441;28;20013;-76
2022/07/03 08:21:59;;;;;;;;;;;13.90;99.90;;;;;;4994257;28;19921;-76
2022/07/03 08:24:26;;;;;;;;;;;13.90;99.90;;;;;;4993079;28;19932;-76
2022/07/03 08:26:52;;;;;;;;;;;13.90;99.90;;;;;;4999769;28;19955;-77
2022/07/03 08:29:19;;;;;;;;;;;13.90;99.90;;;;;;5014349;28;19916;-77
2022/07/03 08:31:46;;;;;;;;;;;13.80;99.90;;;;;;5012472;28;19952;-77
2022/07/03 08:34:13;;;;;;;;;;;13.80;99.90;;;;;;5014222;28;19964;-79
2022/07/03 08:36:41;;;;;;;;;;;13.90;99.90;;;;;;5014417;28;19917;-78
2022/07/03 08:39:09;;;;;;;;;;;13.90;99.90;;;;;;5014051;28;19910;-78
2022/07/03 08:41:40;;;;;;;;;;;13.90;99.90;;;;;;5014162;28;19959;-76
2022/07/03 08:44:07;;;;;;;;;;;13.90;99.90;;;;;;5013810;28;19977;-76
2022/07/03 08:46:35;;;;;;;;;;;13.90;99.90;;;;;;5014123;28;20128;-76
2022/07/03 08:49:02;;;;;;;;;;;13.90;99.90;;;;;;5013922;28;20003;-75
2022/07/03 08:51:28;;;;;;;;;;;13.90;99.90;;;;;;5014130;28;19917;-76
2022/07/03 08:53:55;;;;;;;;;;;13.90;99.90;;;;;;5014023;28;20252;-76
2022/07/03 08:56:26;;;;;;;;;;;13.80;99.90;;;;;;5012719;28;20398;-78
2022/07/03 08:58:52;;;;;;;;;;;13.70;99.90;;;;;;5013131;28;19921;-76
2022/07/03 09:01:20;;;;;;;;;;;13.70;99.90;;;;;;5013193;28;19910;-77
2022/07/03 09:03:47;;;;;;;;;;;13.70;99.90;;;;;;5013664;28;19926;-77
2022/07/03 09:06:13;;;;;;;;;;;13.70;99.90;;;;;;5015920;28;20410;-77
2022/07/03 09:08:41;;;;;;;;;;;13.70;99.90;;;;;;5015924;28;19992;-77
2022/07/03 09:11:07;;;;;;;;;;;13.70;99.90;;;;;;5015665;28;20387;-78
2022/07/03 09:13:34;;;;;;;;;;;13.80;99.90;;;;;;5015742;28;20386;-77
2022/07/03 09:16:01;;;;;;;;;;;13.80;99.90;;;;;;5015495;28;19913;-77
2022/07/03 09:18:38;;;;;;;;;;;13.90;99.90;;;;;;5015746;28;20003;-77
2022/07/03 09:21:05;;;;;;;;;;;13.90;99.90;;;;;;5015325;28;20324;-78
2022/07/03 09:23:42;;;;;;;;;;;13.90;99.90;;;;;;5015383;28;19972;-77
2022/07/03 09:26:16;;;;;;;;;;;14.00;99.90;;;;;;5015560;28;20325;-78
2022/07/03 09:28:51;;;;;;;;;;;13.90;99.90;;;;;;5015366;28;20000;-78
2022/07/03 09:31:19;;;;;;;;;;;13.90;99.90;;;;;;5014603;28;19909;-76
2022/07/03 09:33:54;;;;;;;;;;;13.90;99.90;;;;;;5015325;28;19915;-76
2022/07/03 09:36:38;;;;;;;;;;;13.90;99.90;;;;;;5015311;28;19916;-77
2022/07/03 09:39:17;;;;;;;;;;;14.00;99.90;;;;;;5015147;28;19910;-77
2022/07/03 09:41:53;;;;;;;;;;;14.00;99.90;;;;;;5001715;28;19940;-77
2022/07/03 09:44:28;;;;;;;;;;;14.10;99.90;;;;;;4997557;28;19948;-78
2022/07/03 09:47:13;;;;;;;;;;;14.00;99.90;;;;;;4991326;28;19914;-79
2022/07/03 09:49:47;;;;;;;;;;;14.10;99.90;;;;;;4992714;28;19910;-77
2022/07/03 09:52:29;;;;;;;;;;;14.10;99.90;;;;;;4992417;28;20287;-77
2022/07/03 09:54:59;;;;;;;;;;;14.10;99.90;;;;;;4992022;28;19922;-77
2022/07/03 09:57:30;;;;;;;;;;;14.00;99.90;;;;;;4974199;28;19920;-77
2022/07/03 10:00:11;;;;;;;;;;;14.00;99.90;;;;;;4992007;28;19945;-78
2022/07/03 10:02:57;;;;;;;;;;;14.00;99.90;;;;;;4991012;28;20016;-76
2022/07/03 10:05:26;;;;;;;;;;;14.10;99.90;;;;;;4991852;28;19969;-76
2022/07/03 10:08:02;;;;;;;;;;;14.10;99.90;;;;;;4991861;28;19949;-77
2022/07/03 10:10:30;;;;;;;;;;;14.10;99.90;;;;;;4992241;28;19984;-75
2022/07/03 10:12:58;;;;;;;;;;;14.10;99.90;;;;;;4991236;28;19976;-75
2022/07/03 10:15:26;;;;;;;;;;;14.10;99.90;;;;;;4991910;28;19910;-76
2022/07/03 10:17:53;;;;;;;;;;;14.10;99.90;;;;;;4992229;28;19910;-76
2022/07/03 10:20:24;;;;;;;;;;;14.20;99.90;;;;;;4992025;28;19988;-75
2022/07/03 10:22:51;;;;;;;;;;;14.10;99.90;;;;;;4992211;28;20004;-75
2022/07/03 10:25:18;;;;;;;;;;;13.90;99.90;;;;;;4991342;28;19914;-77
2022/07/03 10:27:46;;;;;;;;;;;13.80;99.90;;;;;;4991434;28;19914;-76
2022/07/03 10:30:17;;;;;;;;;;;13.80;99.90;;;;;;4991858;28;20417;-75
2022/07/03 10:32:50;;;;;;;;;;;13.70;99.90;;;;;;4991887;28;19979;-76
2022/07/03 10:35:19;;;;;;;;;;;13.60;99.90;;;;;;4991619;28;20069;-75
2022/07/03 10:37:58;;;;;;;;;;;13.60;99.90;;;;;;4991435;28;19988;-76
2022/07/03 10:46:15;;;;;;;;;;;13.80;99.90;;;;;;4991674;28;19955;-75
2022/07/03 10:48:51;;;;;;;;;;;13.80;99.90;;;;;;4991651;28;19922;-75
2022/07/03 10:51:18;;;;;;;;;;;13.80;99.90;;;;;;4991255;28;19918;-79
2022/07/03 10:53:45;;;;;;;;;;;13.90;99.90;;;;;;4991537;28;19965;-77
2022/07/03 10:56:12;;;;;;;;;;;13.90;99.90;;;;;;4990955;28;19914;-76
2022/07/03 10:58:58;;;;;;;;;;;13.90;99.90;;;;;;4991157;28;20165;-77
2022/07/03 11:01:33;;;;;;;;;;;14.00;99.90;;;;;;4991326;28;19918;-78
2022/07/03 11:04:01;;;;;;;;;;;14.00;99.90;;;;;;4991027;28;19965;-78
2022/07/03 11:06:43;;;;;;;;;;;14.00;99.90;;;;;;4991453;28;19913;-81
2022/07/03 11:09:10;;;;;;;;;;;14.00;99.90;;;;;;4990968;28;19914;-79
2022/07/03 11:11:56;;;;;;;;;;;14.00;99.90;;;;;;4991057;28;20284;-77
2022/07/03 11:14:24;;;;;;;;;;;14.10;99.90;;;;;;4991583;28;19960;-77
2022/07/03 11:17:09;;;;;;;;;;;14.20;99.90;;;;;;4990583;28;19914;-78
2022/07/03 11:19:36;;;;;;;;;;;14.20;99.90;;;;;;4991087;28;19997;-77
2022/07/03 11:22:06;;;;;;;;;;;14.20;99.90;;;;;;4991311;28;20420;-78
2022/07/03 11:24:39;;;;;;;;;;;14.20;99.90;;;;;;4991265;28;19917;-78
2022/07/03 11:27:19;;;;;;;;;;;14.30;99.90;;;;;;4990845;28;19910;-78
2022/07/03 11:29:55;;;;;;;;;;;14.20;99.90;;;;;;4990731;28;20036;-81
2022/07/03 11:32:42;;;;;;;;;;;14.20;99.90;;;;;;4991434;28;19914;-77
2022/07/03 11:35:09;;;;;;;;;;;14.20;99.90;;;;;;4990513;28;20000;-77
2022/07/03 11:37:36;;;;;;;;;;;14.20;99.90;;;;;;4990985;28;20294;-78
2022/07/03 11:40:04;;;;;;;;;;;14.20;99.90;;;;;;4991175;28;20431;-78
2022/07/03 11:42:34;;;;;;;;;;;14.20;99.90;;;;;;4990348;28;19924;-77
2022/07/03 11:45:01;;;;;;;;;;;14.30;99.90;;;;;;4990598;28;19968;-77
2022/07/03 11:47:28;;;;;;;;;;;14.30;99.90;;;;;;4991209;28;19983;-80
2022/07/03 11:49:55;;;;;;;;;;;14.20;99.90;;;;;;4991149;28;19921;-77
2022/07/03 11:52:42;;;;;;;;;;;14.20;99.90;;;;;;4991332;28;19996;-76
2022/07/03 11:55:10;;;;;;;;;;;14.20;99.90;;;;;;4994807;28;19949;-77
2022/07/03 11:57:36;;;;;;;;;;;14.20;99.90;;;;;;4993837;28;19910;-76
2022/07/03 12:00:06;;;;;;;;;;;14.20;99.90;;;;;;4994780;28;20065;-80
2022/07/03 12:02:33;;;;;;;;;;;14.20;99.90;;;;;;4994848;28;19972;-77
2022/07/03 12:04:59;;;;;;;;;;;14.20;99.90;;;;;;4994567;28;19922;-78
2022/07/03 12:07:26;;;;;;;;;;;14.20;99.90;;;;;;4994902;28;19917;-76
2022/07/03 12:09:53;;;;;;;;;;;14.20;99.90;;;;;;4994364;28;20535;-77
2022/07/03 12:12:24;;;;;;;;;;;14.20;99.90;;;;;;4994176;28;20368;-79
2022/07/03 12:14:51;;;;;;;;;;;14.20;99.90;;;;;;4994306;28;20360;-78
2022/07/03 12:17:25;;;;;;;;;;;14.30;99.90;;;;;;4994642;28;19952;-79
2022/07/03 12:19:53;;;;;;;;;;;14.40;99.90;;;;;;5008560;28;19910;-78
2022/07/03 12:22:30;;;;;;;;;;;14.40;99.90;;;;;;5014415;28;19921;-78
2022/07/03 12:24:57;;;;;;;;;;;14.40;99.90;;;;;;5014656;28;19910;-78
2022/07/03 12:27:25;;;;;;;;;;;14.40;99.90;;;;;;5014971;28;19913;-77
2022/07/03 12:29:52;;;;;;;;;;;14.40;99.90;;;;;;5014794;28;20422;-78
2022/07/03 12:32:19;;;;;;;;;;;14.40;99.90;;;;;;5014800;28;19931;-78
2022/07/03 12:34:46;;;;;;;;;;;14.40;99.90;;;;;;5014659;28;20004;-79
2022/07/03 12:37:12;;;;;;;;;;;14.40;99.90;;;;;;5014280;28;20252;-80
2022/07/03 12:39:46;;;;;;;;;;;14.40;99.90;;;;;;5014578;28;19964;-79
2022/07/03 12:42:20;;;;;;;;;;;14.40;99.90;;;;;;5014606;28;19930;-79
2022/07/03 12:44:59;;;;;;;;;;;14.40;99.90;;;;;;5014576;28;20381;-79
2022/07/03 12:47:27;;;;;;;;;;;14.40;99.90;;;;;;5014546;28;19913;-82
2022/07/03 12:49:57;;;;;;;;;;;14.40;99.90;;;;;;5014160;28;19913;-79
2022/07/03 12:52:24;;;;;;;;;;;14.40;99.90;;;;;;5014461;28;19992;-82
2022/07/03 12:54:50;;;;;;;;;;;14.40;99.90;;;;;;5014409;28;19913;-81
2022/07/03 13:00:06;;;;;;;;;;;14.30;99.90;;;;;;5014227;28;19918;-83
2022/07/03 13:02:36;;;;;;;;;;;14.40;99.90;;;;;;5014001;28;19921;-79
2022/07/03 13:05:13;;;;;;;;;;;14.40;99.90;;;;;;5012923;28;19933;-81
2022/07/03 13:07:41;;;;;;;;;;;14.40;99.90;;;;;;5014166;28;20072;-82
2022/07/03 13:10:08;;;;;;;;;;;14.40;99.90;;;;;;5014098;28;19910;-78
2022/07/03 13:12:35;;;;;;;;;;;14.40;99.90;;;;;;5013917;28;19913;-78
2022/07/03 13:15:02;;;;;;;;;;;14.40;99.90;;;;;;5013308;28;19909;-79
2022/07/03 13:17:47;;;;;;;;;;;14.50;99.90;;;;;;5013901;28;19917;-79
2022/07/03 13:20:13;;;;;;;;;;;14.50;99.90;;;;;;5013598;28;19940;-79
2022/07/03 13:22:40;;;;;;;;;;;14.50;99.90;;;;;;5013651;28;19917;-80
2022/07/03 13:25:07;;;;;;;;;;;14.50;99.90;;;;;;5013453;28;20440;-79
2022/07/03 13:27:34;;;;;;;;;;;14.60;99.90;;;;;;5013164;28;20425;-79
2022/07/03 13:30:00;;;;;;;;;;;14.60;99.90;;;;;;5013407;28;19936;-79
2022/07/03 13:32:27;;;;;;;;;;;14.60;99.90;;;;;;5013520;28;19913;-80
2022/07/03 13:34:54;;;;;;;;;;;14.60;99.90;;;;;;5013293;28;19913;-81
2022/07/03 13:37:21;;;;;;;;;;;14.50;99.90;;;;;;5013538;28;19970;-81
2022/07/03 13:39:48;;;;;;;;;;;14.60;99.90;;;;;;5013577;28;20342;-79
2022/07/03 13:42:14;;;;;;;;;;;14.60;99.90;;;;;;5013056;28;19922;-80
2022/07/03 13:44:41;;;;;;;;;;;14.60;99.90;;;;;;5013384;28;20268;-81
2022/07/03 13:47:08;;;;;;;;;;;14.60;99.90;;;;;;5013210;28;20275;-80
2022/07/03 13:49:35;;;;;;;;;;;14.50;99.90;;;;;;5013232;28;19941;-78
2022/07/03 13:52:01;;;;;;;;;;;14.50;99.90;;;;;;5013400;28;19996;-82
2022/07/03 13:54:28;;;;;;;;;;;14.50;99.90;;;;;;5012908;28;20338;-80
2022/07/03 13:56:55;;;;;;;;;;;14.50;99.90;;;;;;5012960;28;19968;-79
2022/07/03 13:59:22;;;;;;;;;;;14.50;99.90;;;;;;5012923;28;20012;-80
2022/07/03 14:01:48;;;;;;;;;;;14.50;99.90;;;;;;5013060;28;19921;-79
2022/07/03 14:04:15;;;;;;;;;;;14.50;99.90;;;;;;5012859;28;19960;-80
2022/07/03 14:06:42;;;;;;;;;;;14.50;99.90;;;;;;5011477;28;19948;-79
2022/07/03 14:09:08;;;;;;;;;;;14.50;99.90;;;;;;5012939;28;19956;-80
2022/07/03 14:11:35;;;;;;;;;;;14.60;99.90;;;;;;5013098;28;20279;-80
2022/07/03 14:14:02;;;;;;;;;;;14.60;99.90;;;;;;5012736;28;19914;-78
2022/07/03 14:16:29;;;;;;;;;;;14.60;99.90;;;;;;5012553;28;20375;-80
2022/07/03 14:18:55;;;;;;;;;;;14.60;99.90;;;;;;5012740;28;19913;-81
2022/07/03 14:21:22;;;;;;;;;;;14.70;99.90;;;;;;5012564;28;20300;-79
2022/07/03 14:23:49;;;;;;;;;;;14.60;99.90;;;;;;5012615;28;19917;-80
2022/07/03 14:32:28;;;;;;;;;;;14.60;99.90;;;;;;5011512;28;19910;-79
2022/07/03 14:34:31;;;;;;;;;;;14.60;99.90;;;;;;5012334;28;19975;-79
2022/07/03 14:36:58;;;;;;;;;;;14.60;99.90;;;;;;5012365;28;19948;-78
2022/07/03 14:39:24;;;;;;;;;;;14.60;99.90;;;;;;5012396;28;20410;-84
2022/07/03 14:41:51;;;;;;;;;;;14.60;99.90;;;;;;5012486;28;19933;-83
2022/07/03 14:44:19;;;;;;;;;;;14.60;99.90;;;;;;5012289;28;19914;-80
2022/07/03 14:46:46;;;;;;;;;;;14.60;99.90;;;;;;5010985;28;19941;-82
2022/07/03 14:49:13;;;;;;;;;;;14.50;99.90;;;;;;5014225;28;20317;-79